createdAt,value
2018-06-20T00:00:29.520Z,4.67
2018-06-20T00:03:01.180Z,4.43
2018-06-20T00:05:33.008Z,4.60
2018-06-20T00:08:04.734Z,4.20
2018-06-20T00:10:36.172Z,4.20
2018-06-20T00:13:07.601Z,3.80
2018-06-20T00:15:38.875Z,3.80
2018-06-20T00:18:10.132Z,4.13
2018-06-20T00:20:41.032Z,4.33
2018-06-20T00:23:12.556Z,4.27
2018-06-20T00:25:44.168Z,3.70
2018-06-20T00:28:32.511Z,4.00
2018-06-20T00:31:04.094Z,3.93
2018-06-20T00:33:35.968Z,4.10
2018-06-20T00:36:07.782Z,4.10
2018-06-20T00:38:39.531Z,3.83
2018-06-20T00:41:11.272Z,3.80
2018-06-20T00:43:43.119Z,3.77
2018-06-20T00:46:14.822Z,4.03
2018-06-20T00:48:46.635Z,4.13
2018-06-20T00:51:18.338Z,3.83
2018-06-20T00:53:50.086Z,4.00
2018-06-20T00:56:26.211Z,4.10
2018-06-20T00:58:58.009Z,3.80
2018-06-20T01:01:29.895Z,4.00
2018-06-20T01:04:01.325Z,3.90
2018-06-20T01:06:32.883Z,4.57
2018-06-20T01:09:08.247Z,4.53
2018-06-20T01:11:40.057Z,4.00
2018-06-20T01:14:11.970Z,4.43
2018-06-20T01:16:43.716Z,4.23
2018-06-20T01:19:15.563Z,4.10
2018-06-20T01:21:47.357Z,3.77
2018-06-20T01:24:19.123Z,4.17
2018-06-20T01:26:51.123Z,4.60
2018-06-20T01:29:22.899Z,4.07
2018-06-20T01:31:54.775Z,3.77
2018-06-20T01:34:26.151Z,4.17
2018-06-20T01:36:57.764Z,4.03
2018-06-20T01:39:29.612Z,3.70
2018-06-20T01:42:01.359Z,3.90
2018-06-20T01:44:33.187Z,4.10
2018-06-20T01:47:04.940Z,3.53
2018-06-20T01:49:36.700Z,3.67
2018-06-20T01:52:08.487Z,3.50
2018-06-20T01:54:40.253Z,4.07
2018-06-20T01:57:11.967Z,4.13
2018-06-20T01:59:43.787Z,3.73
2018-06-20T02:02:15.551Z,3.67
2018-06-20T02:04:47.555Z,3.80
2018-06-20T02:07:19.383Z,3.90
2018-06-20T02:09:51.161Z,3.63
2018-06-20T02:12:22.879Z,3.50
2018-06-20T02:14:54.683Z,4.00
2018-06-20T02:17:26.382Z,3.57
2018-06-20T02:19:58.126Z,3.67
2018-06-20T02:22:32.651Z,3.60
2018-06-20T02:25:04.494Z,3.50
2018-06-20T02:27:36.220Z,3.40
2018-06-20T02:30:08.058Z,3.53
2018-06-20T02:32:39.335Z,4.47
2018-06-20T02:35:10.896Z,3.60
2018-06-20T02:37:42.698Z,3.70
2018-06-20T02:40:14.488Z,3.63
2018-06-20T02:42:46.227Z,3.63
2018-06-20T02:45:17.883Z,4.07
2018-06-20T02:47:49.383Z,3.83
2018-06-20T02:50:21.129Z,3.60
2018-06-20T02:52:52.895Z,3.60
2018-06-20T02:55:24.651Z,4.07
2018-06-20T02:57:56.854Z,4.33
2018-06-20T03:00:28.626Z,3.90
2018-06-20T03:03:00.371Z,4.03
2018-06-20T03:05:32.691Z,3.87
2018-06-20T03:08:04.451Z,5.10
2018-06-20T03:10:35.781Z,5.43
2018-06-20T03:13:07.611Z,4.40
2018-06-20T03:15:39.532Z,4.43
2018-06-20T03:18:11.244Z,3.93
2018-06-20T03:20:43.139Z,4.00
2018-06-20T03:23:14.847Z,3.77
2018-06-20T03:25:46.761Z,3.93
2018-06-20T03:28:18.516Z,4.10
2018-06-20T03:30:50.275Z,4.30
2018-06-20T03:33:22.080Z,4.40
2018-06-20T03:35:53.947Z,3.53
2018-06-20T03:38:26.063Z,4.10
2018-06-20T03:40:57.921Z,4.40
2018-06-20T03:43:29.730Z,4.53
2018-06-20T03:46:01.516Z,4.73
2018-06-20T03:48:33.254Z,3.70
2018-06-20T03:51:05.053Z,3.70
2018-06-20T03:53:36.758Z,3.70
2018-06-20T03:56:08.669Z,3.43
2018-06-20T03:58:40.427Z,3.90
2018-06-20T04:01:12.203Z,3.33
2018-06-20T04:03:44.046Z,3.73
2018-06-20T04:06:15.817Z,3.50
2018-06-20T04:08:47.555Z,3.63
2018-06-20T04:11:19.327Z,3.63
2018-06-20T04:13:51.018Z,4.53
2018-06-20T04:16:22.780Z,4.03
2018-06-20T04:18:54.170Z,4.07
2018-06-20T04:21:25.737Z,4.33
2018-06-20T04:23:57.487Z,3.90
2018-06-20T04:26:29.253Z,3.67
2018-06-20T04:29:01.287Z,3.90
2018-06-20T04:31:33.090Z,4.00
2018-06-20T04:34:04.860Z,3.60
2018-06-20T04:36:36.295Z,3.63
2018-06-20T04:39:11.201Z,3.70
2018-06-20T04:41:43.169Z,4.47
2018-06-20T04:44:15.007Z,5.17
2018-06-20T04:46:46.938Z,5.07
2018-06-20T04:49:18.825Z,4.50
2018-06-20T04:51:50.761Z,4.80
2018-06-20T04:54:22.691Z,4.87
2018-06-20T04:56:54.742Z,4.40
2018-06-20T04:59:26.539Z,5.20
2018-06-20T05:01:58.404Z,4.87
2018-06-20T05:04:30.287Z,5.30
2018-06-20T05:07:02.185Z,5.33
2018-06-20T05:09:34.033Z,5.30
2018-06-20T05:12:05.965Z,5.27
2018-06-20T05:14:37.824Z,5.90
2018-06-20T05:17:09.686Z,6.87
2018-06-20T05:19:41.616Z,5.90
2018-06-20T05:22:13.464Z,5.77
2018-06-20T05:24:45.280Z,6.30
2018-06-20T05:27:17.174Z,5.47
2018-06-20T05:29:48.971Z,5.57
2018-06-20T05:32:20.911Z,6.00
2018-06-20T05:34:52.851Z,6.20
2018-06-20T05:37:24.828Z,5.90
2018-06-20T05:39:56.659Z,6.47
2018-06-20T05:42:28.540Z,6.10
2018-06-20T05:45:00.396Z,5.70
2018-06-20T05:47:32.291Z,5.00
2018-06-20T05:50:04.221Z,5.13
2018-06-20T05:52:36.127Z,5.20
2018-06-20T05:55:08.175Z,5.27
2018-06-20T05:57:40.087Z,5.37
2018-06-20T06:00:11.892Z,5.37
2018-06-20T06:02:43.758Z,5.03
2018-06-20T06:05:15.683Z,5.40
2018-06-20T06:07:47.527Z,4.70
2018-06-20T06:10:19.793Z,4.90
2018-06-20T06:12:51.675Z,5.00
2018-06-20T06:15:23.508Z,5.00
2018-06-20T06:17:55.391Z,5.10
2018-06-20T06:20:27.728Z,5.07
2018-06-20T06:22:59.660Z,4.53
2018-06-20T06:25:31.534Z,4.00
2018-06-20T06:28:03.489Z,4.37
2018-06-20T06:30:35.336Z,4.47
2018-06-20T06:33:07.256Z,4.93
2018-06-20T06:35:39.109Z,4.57
2018-06-20T06:38:11.122Z,4.70
2018-06-20T06:40:43.051Z,4.87
2018-06-20T06:43:14.972Z,4.63
2018-06-20T06:45:46.943Z,4.90
2018-06-20T06:48:18.980Z,4.73
2018-06-20T06:50:50.839Z,4.50
2018-06-20T06:53:22.788Z,5.10
2018-06-20T06:55:54.888Z,5.00
2018-06-20T06:58:26.886Z,4.80
2018-06-20T07:00:58.813Z,4.67
2018-06-20T07:03:30.724Z,4.80
2018-06-20T07:06:02.593Z,5.00
2018-06-20T07:08:34.554Z,4.40
2018-06-20T07:11:06.411Z,4.03
2018-06-20T07:13:38.337Z,4.53
2018-06-20T07:16:10.313Z,4.73
2018-06-20T07:18:42.236Z,4.10
2018-06-20T07:21:14.125Z,4.00
2018-06-20T07:23:46.000Z,4.07
2018-06-20T07:26:17.845Z,3.80
2018-06-20T07:28:49.707Z,4.20
2018-06-20T07:31:21.519Z,3.80
2018-06-20T07:33:53.611Z,5.37
2018-06-20T07:36:25.549Z,4.50
2018-06-20T07:38:57.436Z,4.17
2018-06-20T07:41:29.315Z,4.37
2018-06-20T07:44:01.219Z,3.97
2018-06-20T07:46:33.026Z,4.10
2018-06-20T07:49:04.927Z,4.17
2018-06-20T07:51:36.727Z,4.37
2018-06-20T07:54:08.604Z,4.83
2018-06-20T07:56:40.376Z,4.47
2018-06-20T07:59:16.113Z,4.57
2018-06-20T08:03:08.244Z,4.17
2018-06-20T08:05:45.349Z,4.27
2018-06-20T08:08:22.139Z,4.30
2018-06-20T08:10:59.156Z,4.20
2018-06-20T08:13:36.144Z,3.80
2018-06-20T08:16:13.015Z,3.50
2018-06-20T08:18:49.479Z,3.77
2018-06-20T08:21:21.570Z,4.00
2018-06-20T08:23:53.467Z,3.70
2018-06-20T08:26:25.330Z,3.43
2018-06-20T08:28:57.191Z,3.50
2018-06-20T08:31:29.042Z,3.50
2018-06-20T08:34:00.887Z,3.43
2018-06-20T08:36:32.817Z,3.57
2018-06-20T08:39:05.979Z,3.20
2018-06-20T08:41:37.921Z,3.40
2018-06-20T08:44:09.764Z,3.03
2018-06-20T08:46:41.596Z,3.07
2018-06-20T08:49:13.492Z,3.10
2018-06-20T08:51:45.320Z,3.10
2018-06-20T08:54:16.638Z,3.10
2018-06-20T08:56:48.316Z,3.13
2018-06-20T08:59:19.651Z,3.13
2018-06-20T09:01:51.251Z,3.20
2018-06-20T09:04:28.146Z,3.00
2018-06-20T09:07:05.152Z,3.00
2018-06-20T09:09:42.123Z,3.40
2018-06-20T09:12:18.871Z,2.97
2018-06-20T09:14:55.579Z,2.90
2018-06-20T09:17:32.552Z,3.13
2018-06-20T09:20:06.075Z,3.20
2018-06-20T09:22:38.912Z,3.43
2018-06-20T09:25:10.687Z,3.20
2018-06-20T09:27:42.508Z,3.10
2018-06-20T09:30:14.323Z,3.53
2018-06-20T09:32:46.838Z,3.10
2018-06-20T09:35:18.630Z,3.77
2018-06-20T09:37:50.732Z,3.83
2018-06-20T09:40:22.572Z,3.23
2018-06-20T09:42:54.793Z,2.63
2018-06-20T09:45:26.944Z,3.10
2018-06-20T09:47:58.831Z,3.13
2018-06-20T09:50:35.723Z,2.87
2018-06-20T09:53:07.741Z,3.13
2018-06-20T09:55:39.933Z,3.60
2018-06-20T09:58:11.851Z,3.60
2018-06-20T10:00:48.424Z,3.30
2018-06-20T10:03:25.149Z,3.37
2018-06-20T10:06:02.064Z,3.63
2018-06-20T10:08:38.998Z,3.27
2018-06-20T10:11:16.011Z,3.30
2018-06-20T10:13:49.145Z,3.40
2018-06-20T10:16:20.608Z,2.93
2018-06-20T10:18:52.362Z,3.33
2018-06-20T10:21:24.407Z,3.77
2018-06-20T10:23:56.362Z,3.20
2018-06-20T10:26:27.903Z,3.17
2018-06-20T10:28:59.268Z,2.80
2018-06-20T10:31:31.001Z,3.03
2018-06-20T10:34:03.027Z,3.00
2018-06-20T10:36:35.101Z,2.60
2018-06-20T10:39:10.595Z,2.60
2018-06-20T10:41:42.598Z,2.70
2018-06-20T10:44:15.776Z,2.40
2018-06-20T10:46:52.662Z,2.57
2018-06-20T10:49:24.673Z,2.50
2018-06-20T10:51:56.651Z,2.37
2018-06-20T10:54:28.796Z,2.40
2018-06-20T10:57:05.530Z,2.43
2018-06-20T10:59:42.415Z,3.10
2018-06-20T11:02:19.434Z,2.90
2018-06-20T11:04:56.376Z,2.90
2018-06-20T11:07:33.203Z,3.10
2018-06-20T11:10:10.227Z,3.10
2018-06-20T11:13:16.359Z,3.20
2018-06-20T11:15:48.335Z,3.00
2018-06-20T11:18:20.283Z,3.00
2018-06-20T11:20:57.301Z,2.90
2018-06-20T11:23:29.520Z,2.73
2018-06-20T11:26:01.475Z,2.57
2018-06-20T11:28:33.394Z,2.57
2018-06-20T11:31:07.764Z,2.60
2018-06-20T11:33:42.511Z,2.60
2018-06-20T11:36:14.452Z,2.70
2018-06-20T11:38:46.325Z,2.20
2018-06-20T11:41:18.325Z,2.73
2018-06-20T11:43:50.992Z,2.40
2018-06-20T11:46:28.841Z,2.30
2018-06-20T11:49:00.859Z,2.50
2018-06-20T11:51:33.375Z,2.27
2018-06-20T11:54:09.888Z,2.37
2018-06-20T11:56:41.535Z,2.03
2018-06-20T11:59:18.147Z,2.20
2018-06-20T12:01:55.077Z,1.80
2018-06-20T12:04:32.140Z,1.90
2018-06-20T12:07:09.108Z,1.53
2018-06-20T12:09:45.551Z,2.17
2018-06-20T12:12:22.173Z,2.33
2018-06-20T12:14:58.987Z,2.27
2018-06-20T12:17:35.931Z,2.53
2018-06-20T12:20:13.055Z,2.37
2018-06-20T12:22:50.052Z,2.30
2018-06-20T12:25:27.166Z,2.50
2018-06-20T12:28:04.099Z,2.20
2018-06-20T12:30:41.124Z,2.13
2018-06-20T12:33:18.272Z,2.10
2018-06-20T12:35:54.990Z,2.37
2018-06-20T12:38:32.027Z,2.40
2018-06-20T12:41:09.004Z,2.23
2018-06-20T12:43:46.465Z,2.27
2018-06-20T12:46:29.033Z,2.40
2018-06-20T12:49:01.573Z,2.20
2018-06-20T12:51:33.475Z,2.10
2018-06-20T12:54:05.914Z,2.00
2018-06-20T12:56:37.822Z,1.90
2018-06-20T12:59:09.672Z,1.90
2018-06-20T13:01:41.475Z,1.97
2018-06-20T13:04:13.753Z,2.40
2018-06-20T13:06:45.583Z,2.20
2018-06-20T13:09:17.460Z,2.27
2018-06-20T13:11:49.248Z,1.80
2018-06-20T13:14:21.147Z,2.10
2018-06-20T13:16:53.822Z,2.10
2018-06-20T13:19:25.849Z,1.93
2018-06-20T13:21:57.715Z,2.00
2018-06-20T13:24:29.577Z,2.40
2018-06-20T13:27:01.378Z,2.00
2018-06-20T13:29:33.251Z,2.30
2018-06-20T13:32:10.226Z,1.80
2018-06-20T13:34:47.128Z,2.00
2018-06-20T13:37:23.884Z,1.90
2018-06-20T13:40:00.892Z,1.90
2018-06-20T13:42:37.754Z,2.10
2018-06-20T13:45:14.730Z,1.90
2018-06-20T13:47:51.656Z,2.10
2018-06-20T13:50:23.646Z,1.70
2018-06-20T13:52:55.537Z,1.83
2018-06-20T13:55:27.402Z,1.97
2018-06-20T13:57:59.161Z,2.07
2018-06-20T14:00:31.033Z,1.90
2018-06-20T14:03:02.826Z,1.90
2018-06-20T14:05:34.780Z,2.20
2018-06-20T14:08:06.662Z,2.10
2018-06-20T14:10:38.633Z,1.90
2018-06-20T14:13:11.393Z,1.90
2018-06-20T14:15:43.488Z,2.13
2018-06-20T14:18:15.767Z,2.03
2018-06-20T14:20:52.857Z,2.03
2018-06-20T14:23:24.969Z,1.90
2018-06-20T14:25:57.675Z,2.00
2018-06-20T14:28:30.269Z,2.00
2018-06-20T14:31:07.214Z,2.10
2018-06-20T14:33:43.994Z,1.97
2018-06-20T14:36:22.358Z,1.93
2018-06-20T14:39:00.202Z,2.27
2018-06-20T14:41:36.073Z,2.10
2018-06-20T14:44:09.909Z,2.47
2018-06-20T14:46:41.994Z,1.97
2018-06-20T14:49:14.078Z,2.10
2018-06-20T14:51:46.273Z,2.00
2018-06-20T14:54:18.530Z,2.50
2018-06-20T14:56:51.025Z,2.27
2018-06-20T14:59:23.727Z,2.40
2018-06-20T15:01:56.319Z,2.60
2018-06-20T15:04:29.385Z,2.30
2018-06-20T15:07:01.737Z,2.00
2018-06-20T15:09:33.890Z,2.50
2018-06-20T15:12:06.239Z,2.43
2018-06-20T15:14:38.465Z,2.83
2018-06-20T15:17:15.895Z,2.20
2018-06-20T15:19:49.079Z,2.03
2018-06-20T15:22:21.889Z,2.20
2018-06-20T15:24:54.799Z,2.40
2018-06-20T15:27:31.526Z,2.20
2018-06-20T15:30:08.194Z,2.37
2018-06-20T15:32:45.359Z,2.30
2018-06-20T15:35:22.543Z,2.10
2018-06-20T15:37:59.673Z,2.33
2018-06-20T15:40:31.594Z,2.53
2018-06-20T15:43:03.687Z,2.20
2018-06-20T15:45:39.872Z,2.50
2018-06-20T15:48:11.927Z,2.50
2018-06-20T15:50:43.899Z,2.25
2018-06-20T15:53:15.952Z,2.40
2018-06-20T15:55:47.857Z,2.40
2018-06-20T15:58:19.843Z,2.20
2018-06-20T16:00:52.203Z,3.10
2018-06-20T16:03:24.191Z,2.50
2018-06-20T16:05:56.173Z,2.30
2018-06-20T16:08:28.145Z,2.70
2018-06-20T16:11:00.638Z,2.37
2018-06-20T16:13:32.533Z,2.30
2018-06-20T16:16:04.616Z,2.10
2018-06-20T16:18:36.893Z,2.67
2018-06-20T16:21:13.873Z,2.47
2018-06-20T16:23:50.631Z,1.90
2018-06-20T16:26:27.382Z,2.70
2018-06-20T16:29:04.979Z,2.37
2018-06-20T16:31:36.895Z,2.50
2018-06-20T16:34:08.938Z,2.33
2018-06-20T16:36:40.868Z,2.70
2018-06-20T16:39:12.923Z,2.23
2018-06-20T16:41:44.839Z,2.50
2018-06-20T16:44:16.812Z,2.43
2018-06-20T16:46:48.715Z,2.30
2018-06-20T16:49:20.791Z,2.77
2018-06-20T16:51:53.815Z,2.50
2018-06-20T16:54:25.369Z,2.57
2018-06-20T16:56:57.189Z,2.57
2018-06-20T16:59:29.202Z,2.40
2018-06-20T17:02:06.286Z,2.40
2018-06-20T17:04:38.217Z,2.30
2018-06-20T17:07:11.556Z,2.67
2018-06-20T17:09:43.611Z,2.47
2018-06-20T17:12:20.727Z,2.30
2018-06-20T17:14:57.712Z,2.27
2018-06-20T17:17:34.689Z,2.50
2018-06-20T17:20:11.673Z,2.30
2018-06-20T17:22:48.451Z,2.37
2018-06-20T17:25:24.267Z,2.33
2018-06-20T17:27:56.312Z,2.10
2018-06-20T17:30:28.173Z,2.30
2018-06-20T17:33:00.034Z,2.13
2018-06-20T17:35:31.935Z,2.40
2018-06-20T17:38:04.454Z,2.47
2018-06-20T17:40:36.712Z,2.80
2018-06-20T17:43:08.507Z,2.10
2018-06-20T17:45:41.923Z,2.20
2018-06-20T17:48:14.502Z,2.50
2018-06-20T17:50:46.777Z,2.50
2018-06-20T17:53:18.142Z,2.83
2018-06-20T17:55:49.820Z,2.47
2018-06-20T17:58:21.673Z,3.03
2018-06-20T18:01:09.153Z,2.20
2018-06-20T18:03:42.938Z,2.40
2018-06-20T18:06:19.857Z,2.53
2018-06-20T18:08:57.535Z,2.33
2018-06-20T18:11:34.249Z,2.60
2018-06-20T18:14:11.138Z,2.47
2018-06-20T18:16:48.092Z,2.50
2018-06-20T18:19:19.900Z,2.30
2018-06-20T18:21:51.948Z,2.40
2018-06-20T18:24:23.776Z,2.40
2018-06-20T18:26:56.363Z,2.50
2018-06-20T18:29:28.220Z,2.70
2018-06-20T18:32:00.093Z,2.43
2018-06-20T18:34:32.137Z,2.57
2018-06-20T18:37:04.003Z,2.70
2018-06-20T18:39:41.275Z,2.77
2018-06-20T18:42:13.311Z,2.70
2018-06-20T18:44:45.180Z,2.80
2018-06-20T18:47:22.195Z,3.00
2018-06-20T18:49:54.654Z,2.93
2018-06-20T18:52:26.472Z,2.70
2018-06-20T18:54:58.496Z,3.10
2018-06-20T18:57:35.267Z,2.73
2018-06-20T19:00:13.875Z,2.60
2018-06-20T19:02:50.826Z,2.63
2018-06-20T19:06:27.308Z,2.83
2018-06-20T19:09:02.077Z,2.77
2018-06-20T19:11:33.916Z,2.77
2018-06-20T19:14:05.794Z,2.80
2018-06-20T19:16:37.582Z,2.53
2018-06-20T19:19:09.452Z,2.50
2018-06-20T19:21:41.407Z,2.50
2018-06-20T19:24:14.094Z,2.30
2018-06-20T19:26:46.035Z,2.60
2018-06-20T19:29:17.508Z,2.70
2018-06-20T19:31:49.119Z,3.00
2018-06-20T19:34:20.732Z,2.50
2018-06-20T19:36:52.687Z,2.60
2018-06-20T19:39:29.659Z,2.47
2018-06-20T19:42:01.464Z,2.83
2018-06-20T19:44:34.409Z,2.50
2018-06-20T19:47:07.275Z,2.60
2018-06-20T19:49:39.227Z,2.70
2018-06-20T19:52:11.064Z,2.63
2018-06-20T19:54:42.811Z,2.33
2018-06-20T19:57:14.451Z,2.77
2018-06-20T19:59:46.276Z,3.13
2018-06-20T20:02:24.905Z,2.50
2018-06-20T20:04:56.816Z,2.93
2018-06-20T20:07:28.708Z,2.80
2018-06-20T20:10:00.468Z,2.40
2018-06-20T20:12:32.536Z,2.53
2018-06-20T20:15:04.435Z,2.73
2018-06-20T20:17:36.247Z,2.50
2018-06-20T20:20:09.306Z,2.47
2018-06-20T20:22:41.146Z,2.47
2018-06-20T20:25:13.234Z,2.50
2018-06-20T20:27:45.020Z,2.40
2018-06-20T20:30:16.988Z,2.70
2018-06-20T20:32:48.796Z,2.50
2018-06-20T20:35:20.734Z,2.50
2018-06-20T20:37:52.507Z,2.70
2018-06-20T20:40:24.378Z,2.67
2018-06-20T20:42:56.197Z,2.70
2018-06-20T20:45:27.579Z,3.00
2018-06-20T20:47:59.215Z,2.40
2018-06-20T20:50:30.742Z,2.47
2018-06-20T20:53:02.494Z,2.50
2018-06-20T20:55:35.268Z,2.50
2018-06-20T20:58:07.114Z,2.87
2018-06-20T21:00:39.069Z,2.60
2018-06-20T21:03:11.060Z,2.70
2018-06-20T21:05:42.916Z,2.70
2018-06-20T21:08:14.706Z,2.63
2018-06-20T21:10:46.600Z,2.70
2018-06-20T21:13:18.624Z,2.70
2018-06-20T21:15:50.524Z,2.63
2018-06-20T21:18:22.411Z,2.77
2018-06-20T21:20:54.280Z,2.50
2018-06-20T21:23:26.054Z,2.47
2018-06-20T21:25:58.006Z,2.70
2018-06-20T21:28:29.849Z,2.80
2018-06-20T21:31:01.711Z,2.60
2018-06-20T21:33:33.459Z,2.67
2018-06-20T21:36:05.460Z,2.60
2018-06-20T21:38:37.253Z,2.90
2018-06-20T21:41:09.072Z,2.70
2018-06-20T21:43:40.947Z,2.67
2018-06-20T21:46:12.320Z,3.30
2018-06-20T21:48:43.880Z,2.37
2018-06-20T21:51:15.799Z,2.80
2018-06-20T21:53:47.641Z,2.80
2018-06-20T21:56:19.476Z,2.97
2018-06-20T21:58:51.456Z,3.03
2018-06-20T22:01:24.444Z,2.87
2018-06-20T22:03:56.308Z,2.67
2018-06-20T22:06:27.719Z,2.80
2018-06-20T22:08:59.308Z,2.77
2018-06-20T22:11:37.137Z,2.40
2018-06-20T22:14:10.093Z,3.17
2018-06-20T22:16:41.918Z,2.70
2018-06-20T22:19:13.681Z,2.80
2018-06-20T22:21:45.538Z,2.97
2018-06-20T22:24:17.686Z,3.13
2018-06-20T22:26:49.552Z,2.60
2018-06-20T22:29:21.386Z,2.70
2018-06-20T22:31:53.716Z,2.77
2018-06-20T22:34:25.507Z,2.80
2018-06-20T22:36:57.362Z,2.80
2018-06-20T22:39:29.263Z,2.67
2018-06-20T22:42:01.092Z,2.90
2018-06-20T22:44:32.889Z,3.10
2018-06-20T22:47:04.754Z,3.07
2018-06-20T22:49:36.583Z,2.77
2018-06-20T22:52:08.441Z,3.17
2018-06-20T22:54:39.797Z,3.07
2018-06-20T22:57:11.404Z,3.00
2018-06-20T22:59:43.194Z,2.90
2018-06-20T23:02:15.023Z,2.80
2018-06-20T23:04:46.796Z,2.83
2018-06-20T23:07:18.645Z,3.00
2018-06-20T23:09:50.495Z,2.90
2018-06-20T23:12:22.309Z,3.03
2018-06-20T23:14:54.056Z,3.30
2018-06-20T23:17:25.876Z,3.27
2018-06-20T23:19:57.633Z,3.00
2018-06-20T23:22:29.411Z,3.00
2018-06-20T23:25:01.210Z,3.00
2018-06-20T23:27:33.061Z,2.80
2018-06-20T23:30:06.467Z,3.43
2018-06-20T23:32:38.326Z,3.17
2018-06-20T23:35:11.051Z,3.23
2018-06-20T23:37:43.194Z,3.20
2018-06-20T23:40:14.964Z,2.90
2018-06-20T23:42:46.763Z,3.03
2018-06-20T23:45:18.530Z,2.87
2018-06-20T23:47:50.307Z,3.17
2018-06-20T23:50:22.031Z,2.70
2018-06-20T23:52:53.796Z,2.93
2018-06-20T23:55:25.631Z,3.50
2018-06-20T23:57:57.456Z,3.07
